Latest Coastal Weather Observations for Walpole North

IDW60701

Issued at 10:22 pm WST Tuesday 25 April 2017 (issued every 10 minutes, with the page automatically refreshed every 10 minutes)

About coastal observations | Map of coastal stations | Coastal observations for WA | Marine services | Other Formats
Station Details ID: 009998 Name: NORTH WALPOLE Lat: -34.95 Lon: 116.72 Height: 73.0 m
Data from the previous 72 hours. | See also: Recent months at Walpole North
Date/Time
WST
Temp
°C
Wind Pressure Rain since
9am
mm
Weather Cloud Vis
km
Sea
Height
m
Swell
Dir  Spd
kts
Gust
kts
hPa Trend Height
m
Period
s
Dir
25/10:00pm 11.5 CALM 0 0 1026.9 - 0.2 - - - - - - -
25/09:30pm 11.8 CALM 0 0 1026.9 - 0.2 - - - - - - -
25/09:00pm 12.3 CALM 0 0 1026.9 - 0.2 - - - - - - -
25/08:30pm 12.4 SW 1 3 1026.9 - 0.2 - - - - - - -
25/08:00pm 12.7 SW 3 4 1026.8 - 0.2 - - - - - - -
25/07:30pm 13.2 SW 3 4 1026.7 - 0.2 - - - - - - -
25/07:00pm 13.4 SW 3 3 1026.6 - 0.2 - - - - - - -
25/06:30pm 13.9 CALM 0 0 1026.4 - 0.2 - - - - - - -
25/06:00pm 15.0 SW 4 6 1026.1 - 0.2 - - - - - - -
25/05:30pm 16.1 SW 4 5 1026.0 - 0.2 - - - - - - -
25/05:00pm 17.3 SSW 5 7 1025.8 - 0.2 - - - - - - -
25/04:30pm 17.5 SW 7 12 1025.7 - 0.2 - - - - - - -
25/04:00pm 18.6 SW 7 9 1025.4 - 0.2 - - - - - - -
25/03:30pm 17.9 SSE 6 8 1025.2 - 0.2 - - - - - - -
25/03:00pm 17.6 SSE 4 8 1025.0 - 0.2 - - - - - - -
25/02:30pm 18.0 SSE 5 7 1024.6 - 0.2 - - - - - - -
25/02:00pm 17.5 SSE 5 9 1024.6 - 0.2 - - - - - - -
25/01:30pm 17.9 SSE 5 9 1024.7 - 0.2 - - - - - - -
25/01:00pm 17.9 S 5 8 1025.0 - 0.2 - - - - - - -
25/12:30pm 17.2 S 5 9 1025.3 - 0.2 - - - - - - -
25/12:00pm 18.3 S 4 7 1025.6 - 0.2 Recent precip. - - - - - -
25/11:30am 18.9 WSW 5 8 1025.8 - 0.0 - - - - - - -
25/11:00am 18.0 WNW 9 12 1026.0 - 0.0 - - - - - - -
25/10:30am 17.5 W 6 11 1026.2 - 0.0 - - - - - - -
25/10:00am 17.3 WNW 7 9 1026.1 - 0.0 - - - - - - -
25/09:30am 16.3 W 5 6 1026.1 - 0.0 - - - - - - -
25/09:00am 15.1 WNW 3 5 1026.1 - 1.0 - - - - - - -
25/08:30am 14.0 WNW 3 5 1025.8 - 1.0 - - - - - - -
25/08:00am 13.0 NW 3 4 1025.7 - 1.0 - - - - - - -
25/07:30am 10.9 NW 5 6 1025.6 - 1.0 - - - - - - -
25/07:00am 10.1 NW 2 5 1025.3 - 1.0 - - - - - - -
25/06:30am 10.0 NW 2 3 1025.0 - 1.0 - - - - - - -
25/06:00am 10.8 NW 3 6 1024.8 - 1.0 - - - - - - -
25/05:30am 10.5 NW 3 5 1024.7 - 1.0 - - - - - - -
25/05:00am 10.6 WNW 3 4 1024.5 - 1.0 - - - - - - -
25/04:30am 10.6 CALM 0 3 1024.3 - 1.0 - - - - - - -
25/04:00am 10.9 CALM 0 3 1024.1 - 1.0 - - - - - - -
25/03:30am 10.5 WNW 3 6 1024.1 - 1.0 - - - - - - -
25/03:00am 10.4 NW 3 5 1024.3 - 1.0 - - - - - - -
25/02:30am 9.7 SW 3 5 1024.4 - 1.0 - - - - - - -
25/02:00am 9.8 CALM 0 3 1024.2 - 1.0 - - - - - - -
25/01:30am 10.1 CALM 0 3 1024.2 - 1.0 - - - - - - -
25/01:00am 10.3 SW 3 4 1024.2 - 1.0 - - - - - - -
25/12:30am 10.4 CALM 0 3 1024.3 - 1.0 - - - - - - -
25/12:00am 10.4 SW 3 4 1024.1 - 1.0 - - - - - - -
 
Date/Time
WST
Temp
°C
Wind Pressure Rain since
9am
mm
Weather Cloud Vis
km
Sea
Height
m
Swell
Dir  Spd
kts
Gust
kts
hPa Trend Height
m
Period
s
Dir
24/11:30pm 10.2 SSW 4 5 1024.4 - 1.0 - - - - - - -
24/11:00pm 10.1 SSW 3 4 1024.5 - 1.0 - - - - - - -
24/10:30pm 10.5 SSW 3 5 1024.6 - 1.0 - - - - - - -
24/10:00pm 10.7 SSW 3 4 1024.3 - 1.0 - - - - - - -
24/09:30pm 10.9 SSW 3 4 1024.4 - 1.0 - - - - - - -
24/09:00pm 11.3 SSW 3 5 1024.2 - 1.0 - - - - - - -
24/08:30pm 11.8 SSW 2 5 1024.1 - 1.0 - - - - - - -
24/08:00pm 12.1 SSW 3 5 1023.9 - 1.0 - - - - - - -
24/07:30pm 12.1 SSW 3 4 1024.0 - 1.0 - - - - - - -
24/07:00pm 13.2 SSW 4 5 1024.0 - 1.0 - - - - - - -
24/06:30pm 14.2 SSW 5 8 1023.7 - 1.0 - - - - - - -
24/06:00pm 14.6 SW 5 7 1023.5 - 1.0 - - - - - - -
24/05:30pm 15.0 SSW 5 8 1023.4 - 1.0 - - - - - - -
24/05:00pm 15.5 SSW 5 8 1023.0 - 1.0 - - - - - - -
24/04:30pm 15.9 S 6 10 1022.7 - 1.0 - - - - - - -
24/04:00pm 16.7 S 5 8 1022.7 - 1.0 - - - - - - -
24/03:30pm 15.8 SSE 3 7 1022.6 - 1.0 - - - - - - -
24/03:00pm 15.6 S 3 5 1022.5 - 1.0 - - - - - - -
24/02:30pm 15.1 WSW 2 5 1022.6 - 1.0 - - - - - - -
24/02:00pm 14.8 SSE 3 6 1022.7 - 1.0 - - - - - - -
24/01:30pm 14.8 SE 8 11 1022.6 - 0.8 - - - - - - -
24/01:00pm 15.5 SE 7 11 1022.7 - 0.8 - - - - - - -
24/12:30pm 14.6 SSE 8 12 1023.3 - 0.8 - - - - - - -
24/12:00pm 14.9 SE 7 10 1023.5 - 0.8 - - - - - - -
24/11:30am 15.0 SSE 7 10 1023.9 - 0.8 - - - - - - -
24/11:00am 14.9 SE 6 8 1024.2 - 0.8 - - - - - - -
24/10:30am 14.4 SSE 7 10 1024.4 - 0.6 - - - - - - -
24/10:00am 14.5 SE 5 7 1024.4 - 0.2 - - - - - - -
24/09:30am 14.5 SSE 5 8 1024.5 - 0.0 - - - - - - -
24/09:00am 14.7 SSW 5 7 1024.5 - 1.2 - - - - - - -
24/08:30am 14.9 WNW 5 6 1024.1 - 1.2 - - - - - - -
24/08:00am 14.8 N 1 4 1023.8 - 1.2 - - - - - - -
24/07:30am 14.4 NNW 1 4 1023.7 - 1.2 - - - - - - -
24/07:00am 14.0 NE 3 4 1023.5 - 1.2 - - - - - - -
24/06:30am 12.9 NE 3 4 1023.3 - 1.2 - - - - - - -
24/06:00am 13.9 CALM 0 0 1023.0 - 1.2 - - - - - - -
24/05:30am 14.1 CALM 0 0 1023.0 - 1.2 - - - - - - -
24/05:00am 14.0 CALM 0 0 1023.1 - 1.2 - - - - - - -
24/04:30am 14.1 CALM 0 0 1023.0 - 1.2 - - - - - - -
24/04:00am 14.1 CALM 0 0 1023.0 - 1.2 - - - - - - -
24/03:30am 14.0 CALM 0 0 1022.8 - 1.2 - - - - - - -
24/03:00am 14.0 CALM 0 0 1023.1 - 1.2 - - - - - - -
24/02:30am 14.0 CALM 0 0 1023.3 - 1.2 - - - - - - -
24/02:00am 14.3 N 3 4 1023.5 - 1.2 - - - - - - -
24/01:30am 14.4 ESE 2 4 1023.5 - 1.2 - - - - - - -
24/01:00am 14.8 E 4 6 1023.4 - 1.2 - - - - - - -
24/12:30am 14.9 E 4 6 1023.8 - 1.2 - - - - - - -
24/12:00am 14.9 ESE 3 5 1023.9 - 1.2 - - - - - - -
 
Date/Time
WST
Temp
°C
Wind Pressure Rain since
9am
mm
Weather Cloud Vis
km
Sea
Height
m
Swell
Dir  Spd
kts
Gust
kts
hPa Trend Height
m
Period
s
Dir
23/11:30pm 14.9 E 4 6 1024.1 - 1.2 - - - - - - -
23/11:00pm 14.9 E 5 6 1024.3 - 1.2 - - - - - - -
23/10:30pm 15.0 E 4 6 1024.6 - 1.2 - - - - - - -
23/10:00pm 15.0 ESE 4 6 1024.9 - 1.2 - - - - - - -
23/09:30pm 15.1 ESE 6 9 1025.0 - 1.2 - - - - - - -
23/09:00pm 15.0 ENE 4 5 1024.9 - 1.2 Recent precip. - - - - - -
23/08:30pm 15.0 E 5 8 1024.8 - 1.0 - - - - - - -
23/08:00pm 14.9 ESE 6 9 1024.8 - 0.8 - - - - - - -
23/07:30pm 14.9 ESE 6 9 1024.7 - 0.8 - - - - - - -
23/07:00pm 14.9 E 5 8 1024.6 - 0.8 - - - - - - -
23/06:30pm 14.9 ESE 6 9 1024.3 - 0.8 - - - - - - -
23/06:00pm 14.9 ESE 8 12 1024.1 - 0.6 Recent precip. - - - - - -
23/05:30pm 15.0 ESE 7 10 1024.3 - 0.6 - - - - - - -
23/05:00pm 15.1 ESE 5 7 1024.1 - 0.4 - - - - - - -
23/04:30pm 15.3 E 5 8 1024.0 - 0.2 - - - - - - -
23/04:00pm 15.4 E 7 11 1024.1 - 0.0 - - - - - - -
23/03:30pm 16.0 E 8 13 1024.0 - 0.0 - - - - - - -
23/03:00pm 16.8 ESE 9 13 1023.8 - 0.0 - - - - - - -
23/02:30pm 16.7 ESE 9 13 1023.7 - 0.0 - - - - - - -
23/02:00pm 16.7 ESE 9 17 1023.6 - 0.0 - - - - - - -
23/01:30pm 16.7 ESE 10 16 1023.8 - 0.0 - - - - - - -
23/01:00pm 16.7 ESE 11 16 1024.1 - 0.0 - - - - - - -
23/12:30pm 17.1 ESE 11 16 1024.3 - 0.0 - - - - - - -
23/12:00pm 17.1 ESE 11 16 1024.6 - 0.0 - - - - - - -
23/11:30am 17.1 ESE 11 15 1025.0 - 0.0 - - - - - - -
23/11:00am 15.8 ESE 10 18 1025.5 - 0.0 - - - - - - -
23/10:30am 15.6 ESE 8 12 1025.8 - 0.0 - - - - - - -
23/10:00am 15.2 ESE 8 14 1025.9 - 0.0 - - - - - - -
23/09:30am 15.1 ESE 9 14 1026.0 - 0.0 - - - - - - -
23/09:00am 14.8 ESE 7 11 1025.9 - 6.4 Recent precip. - - - - - -
23/08:30am 14.7 E 7 9 1025.8 - 6.4 - - - - - - -
23/08:00am 14.7 ESE 7 11 1025.6 - 6.0 - - - - - - -
23/07:30am 14.8 ESE 8 11 1025.3 - 5.8 - - - - - - -
23/07:00am 14.9 ESE 8 12 1025.0 - 5.2 - - - - - - -
23/06:30am 15.2 ESE 8 12 1024.9 - 5.2 - - - - - - -
23/06:00am 15.0 ESE 9 13 1024.8 - 5.2 Recent precip. - - - - - -
23/05:30am 15.1 ESE 9 15 1024.7 - 5.0 - - - - - - -
23/05:00am 15.1 ESE 9 13 1024.6 - 5.0 - - - - - - -
23/04:30am 15.3 ESE 8 14 1024.5 - 4.6 - - - - - - -
23/04:00am 15.1 ESE 6 9 1024.5 - 4.6 - - - - - - -
23/03:30am 15.2 ESE 8 12 1024.4 - 4.2 - - - - - - -
23/03:00am 15.1 ESE 7 11 1024.5 - 4.0 Recent precip. - - - - - -
23/02:30am 15.2 ESE 11 16 1024.6 - 4.0 - - - - - - -
23/02:00am 15.4 ESE 11 16 1024.7 - 3.0 - - - - - - -
23/01:30am 15.1 ESE 8 11 1024.7 - 2.8 - - - - - - -
23/01:00am 15.5 ESE 9 13 1024.7 - 2.6 - - - - - - -
23/12:30am 15.5 ESE 8 13 1024.7 - 2.4 - - - - - - -
23/12:00am 15.8 ESE 8 13 1024.8 - 2.4 - - - - - - -
 
Date/Time
WST
Temp
°C
Wind Pressure Rain since
9am
mm
Weather Cloud Vis
km
Sea
Height
m
Swell
Dir  Spd
kts
Gust
kts
hPa Trend Height
m
Period
s
Dir
22/11:30pm 15.9 ESE 9 12 1024.9 - 2.4 - - - - - - -
22/11:00pm 15.6 ESE 9 14 1025.0 - 2.4 - - - - - - -
22/10:30pm 15.6 ESE 12 19 1025.1 - 2.4 - - - - - - -

Other Formats:

Comma delimited format used in spreadsheet applications
http://www.bom.gov.au/fwo/IDW60701/IDW60701.95647.axf

JavaScript Object Notation format (JSON) in row-major order
http://www.bom.gov.au/fwo/IDW60701/IDW60701.95647.json